Latest Coastal Weather Observations for Ulladulla

IDN60701

Issued at 4:31 am EST Tuesday 20 August 2019 (issued every 10 minutes, with the page automatically refreshed every 10 minutes)

About coastal observations | Map of coastal stations | Coastal observations for NSW | Marine services | Other Formats
Station Details ID: 069138 Name: ULLADULLA AWS Lat: -35.36 Lon: 150.48 Height: 35.7 m
Data from the previous 72 hours. | See also: Recent months at Ulladulla
Date/Time
EST
Wind Sea
Height
m
Swell Vis
km
Cloud Weather Temp
°C
Press
hPa
Rain since
9am
mm
Dir  Spd
kts
Gust
kts
Height
m
Period
s
Dir
20/04:30am NW 7 13 - - - - - - - - 1019.9 0.0
20/04:00am WNW 6 10 - - - - - - - - 1020.0 0.0
20/03:30am WNW 6 12 - - - - - - - - 1020.1 0.0
20/03:00am WNW 7 13 - - - - - - - - 1020.5 0.0
20/02:30am WNW 6 10 - - - - - - - - 1020.7 0.0
20/02:00am W 7 16 - - - - - - - - 1020.8 0.0
20/01:30am W 6 12 - - - - - - - - 1021.1 0.0
20/01:00am W 5 10 - - - - - - - - 1021.2 0.0
20/12:30am W 5 11 - - - - - - - - 1021.3 0.0
20/12:00am WNW 6 10 - - - - - - - - 1021.4 0.0
 
Date/Time
EST
Wind Sea
Height
m
Swell Vis
km
Cloud Weather Temp
°C
Press
hPa
Rain since
9am
mm
Dir  Spd
kts
Gust
kts
Height
m
Period
s
Dir
19/11:30pm W 6 14 - - - - - - - - 1021.3 0.0
19/11:00pm WNW 5 11 - - - - - - - - 1021.5 0.0
19/10:30pm WNW 5 12 - - - - - - - - 1021.2 0.0
19/10:00pm WNW 7 13 - - - - - - - - 1021.1 0.0
19/09:30pm WNW 8 16 - - - - - - - - 1021.1 0.0
19/09:00pm WNW 6 13 - - - - - - - - 1021.1 0.0
19/08:30pm WNW 9 18 - - - - - - - - 1020.8 0.0
19/08:00pm WNW 10 16 - - - - - - - - 1020.3 0.0
19/07:30pm WNW 9 20 - - - - - - - - 1019.9 0.0
19/07:00pm W 9 17 - - - - - - - - 1019.4 0.0
19/06:30pm WNW 10 18 - - - - - - - - 1018.7 0.0
19/06:00pm WNW 7 13 - - - - - - - - 1018.2 0.0
19/05:30pm W 8 17 - - - - - - - - 1017.8 0.0
19/05:00pm W 8 18 - - - - - - - - 1017.1 0.0
19/04:30pm WNW 10 16 - - - - - - - - 1016.4 0.0
19/04:00pm W 10 17 - - - - - - - - 1015.9 0.0
19/03:30pm WNW 7 14 - - - - - - - - 1015.2 0.0
19/03:00pm WNW 9 19 - - - - - - - - 1014.7 0.0
19/02:30pm W 9 19 - - - - - - - - 1014.2 0.0
19/02:00pm W 10 16 - - - - - - - - 1014.1 0.0
19/01:30pm W 10 19 - - - - - - - - 1013.9 0.0
19/01:00pm W 10 19 - - - - - - - - 1013.7 0.0
19/12:30pm W 10 19 - - - - - - - - 1013.7 0.0
19/12:00pm WSW 7 14 - - - - - - - - 1013.7 0.0
19/11:30am W 12 27 - - - - - - - - 1013.7 0.0
19/11:00am W 11 21 - - - - - - - - 1013.7 0.0
19/10:30am W 11 24 - - - - - - - - 1013.7 0.0
19/10:00am WNW 13 24 - - - - - - - - 1012.8 0.0
19/09:36am WNW 15 30 - - - - - - - - 1012.2 0.0
19/09:30am WNW 12 30 - - - - - - - - 1012.0 0.0
19/09:00am WNW 11 21 - - - - - - - - 1011.6 0.0
19/08:30am WNW 13 25 - - - - - - - - 1011.3 0.0
19/08:15am WNW 15 27 - - - - - - - - 1011.0 0.0
19/08:00am WNW 13 20 - - - - - - - - 1011.0 0.0
19/07:30am WNW 12 25 - - - - - - - - 1010.5 0.0
19/07:00am WNW 13 24 - - - - - - - - 1010.1 0.0
19/06:53am WNW 15 26 - - - - - - - - 1010.0 0.0
19/06:30am WNW 13 25 - - - - - - - - 1009.7 0.0
19/06:04am WNW 15 28 - - - - - - - - 1009.3 0.0
19/06:00am WNW 14 29 - - - - - - - - 1009.2 0.0
19/05:30am WNW 15 27 - - - - - - - - 1008.6 0.0
19/05:26am WNW 15 27 - - - - - - - - 1008.6 0.0
19/05:00am WNW 13 24 - - - - - - - - 1008.3 0.0
19/04:30am WNW 15 31 - - - - - - - - 1008.3 0.0
19/04:02am WNW 15 28 - - - - - - - - 1008.3 0.0
19/04:00am WNW 14 28 - - - - - - - - 1008.2 0.0
19/03:47am WNW 15 30 - - - - - - - - 1008.1 0.0
19/03:30am WNW 12 25 - - - - - - - - 1008.1 0.0
19/03:00am WNW 12 24 - - - - - - - - 1008.4 0.0
19/02:30am WNW 10 19 - - - - - - - - 1008.9 0.0
19/02:00am WNW 8 15 - - - - - - - - 1009.3 0.0
19/01:30am NW 11 19 - - - - - - - - 1009.4 0.0
19/01:00am NW 10 20 - - - - - - - - 1009.6 0.0
19/12:30am NW 7 15 - - - - - - - - 1008.9 0.0
19/12:00am WNW 15 28 - - - - - - - - 1009.3 0.0
 
Date/Time
EST
Wind Sea
Height
m
Swell Vis
km
Cloud Weather Temp
°C
Press
hPa
Rain since
9am
mm
Dir  Spd
kts
Gust
kts
Height
m
Period
s
Dir
18/11:30pm WNW 16 32 - - - - - - - - 1008.5 0.0
18/11:00pm WNW 16 29 - - - - - - - - 1007.7 0.0
18/10:30pm NNW 13 31 - - - - - - - - 1006.6 0.0
18/10:29pm NNW 12 31 - - - - - - - - 1006.6 0.0
18/10:00pm N 9 14 - - - - - - - - 1005.5 0.0
18/09:30pm N 6 13 - - - - - - - - 1006.0 0.0
18/09:00pm N 10 16 - - - - - - - - 1005.8 0.0
18/08:30pm N 14 19 - - - - - - - - 1005.9 0.0
18/08:00pm N 13 20 - - - - - - - - 1006.4 0.0
18/07:30pm N 9 17 - - - - - - - - 1007.0 0.0
18/07:00pm NNE 6 11 - - - - - - - - 1007.2 0.0
18/06:30pm N 12 18 - - - - - - - - 1008.1 0.0
18/06:00pm NNW 11 16 - - - - - - - - 1008.2 0.0
18/05:30pm NNW 14 22 - - - - - - - - 1008.5 0.0
18/05:00pm NNW 13 19 - - - - - - - - 1008.4 0.0
18/04:30pm N 8 16 - - - - - - - - 1009.1 0.0
18/04:00pm N 7 13 - - - - - - - - 1009.4 0.0
18/03:30pm NE 10 18 - - - - - - - - 1009.5 0.0
18/03:00pm NNE 6 10 - - - - - - - - 1010.2 0.0
18/02:30pm NE 8 18 - - - - - - - - 1010.4 0.0
18/02:00pm NE 16 25 - - - - - - - - 1011.0 0.0
18/01:30pm NE 12 20 - - - - - - - - 1011.5 0.0
18/01:00pm NE 10 17 - - - - - - - - 1012.3 0.0
18/12:30pm NE 14 20 - - - - - - - - 1013.3 0.0
18/12:00pm NE 11 18 - - - - - - - - 1013.9 0.0
18/11:30am NNE 6 11 - - - - - - - - 1014.6 0.0
18/11:00am NE 10 14 - - - - - - - - 1015.1 0.0
18/10:30am N 6 11 - - - - - - - - 1015.7 0.0
18/10:00am N 6 13 - - - - - - - - 1016.3 0.0
18/09:30am N 5 10 - - - - - - - - 1016.8 0.0
18/09:00am N 11 17 - - - - - - - - 1017.1 0.0
18/08:30am N 10 16 - - - - - - - - 1017.4 0.0
18/08:00am N 8 12 - - - - - - - - 1017.8 0.0
18/07:30am NNW 7 14 - - - - - - - - 1018.0 0.0
18/07:00am N 6 9 - - - - - - - - 1018.0 0.0
18/06:30am N 8 12 - - - - - - - - 1017.9 0.0
18/06:00am N 6 10 - - - - - - - - 1017.9 0.0
18/05:30am N 7 13 - - - - - - - - 1017.8 0.0
18/05:00am N 7 12 - - - - - - - - 1017.7 0.0
18/04:30am N 5 11 - - - - - - - - 1018.1 0.0
18/04:00am NNW 7 13 - - - - - - - - 1018.4 0.0
18/03:30am N 5 8 - - - - - - - - 1018.6 0.0
18/03:00am NNW 5 9 - - - - - - - - 1018.8 0.0
18/02:30am N 4 7 - - - - - - - - 1019.1 0.0
18/02:00am NNW 3 6 - - - - - - - - 1019.7 0.0
18/01:30am NNW 4 6 - - - - - - - - 1020.1 0.0
18/01:00am NNW 4 7 - - - - - - - - 1020.3 0.0
18/12:30am NNW 5 7 - - - - - - - - 1020.2 0.0
18/12:00am NNW 4 7 - - - - - - - - 1020.3 0.0
 
Date/Time
EST
Wind Sea
Height
m
Swell Vis
km
Cloud Weather Temp
°C
Press
hPa
Rain since
9am
mm
Dir  Spd
kts
Gust
kts
Height
m
Period
s
Dir
17/11:30pm NNW 3 6 - - - - - - - - 1020.3 0.0
17/11:00pm NNW 3 5 - - - - - - - - 1020.7 0.0
17/10:30pm NW 4 6 - - - - - - - - 1021.1 0.0
17/10:00pm NW 4 5 - - - - - - - - 1021.1 0.0
17/09:30pm NW 4 5 - - - - - - - - 1020.9 0.0
17/09:00pm NNW 2 3 - - - - - - - - 1020.7 0.0
17/08:30pm NNW 2 3 - - - - - - - - 1020.9 0.0
17/08:00pm NW 1 1 - - - - - - - - 1021.2 0.0
17/07:30pm NW 3 4 - - - - - - - - 1021.2 0.0
17/07:00pm CALM 0 0 - - - - - - - - 1021.0 0.0
17/06:30pm CALM 0 0 - - - - - - - - 1020.9 0.0
17/06:00pm CALM 0 0 - - - - - - - - 1020.5 0.0
17/05:30pm SE 1 3 - - - - - - - - 1020.2 0.0
17/05:00pm SE 3 5 - - - - - - - - 1019.8 0.0
17/04:30pm SE 3 5 - - - - - - - - 1019.6 0.0
17/04:00pm SSE 3 6 - - - - - - - - 1019.5 0.0
17/03:30pm SSE 4 6 - - - - - - - - 1019.5 0.0
17/03:00pm S 5 8 - - - - - - - - 1019.5 0.0
17/02:30pm S 7 10 - - - - - - - - 1019.4 0.0
17/02:00pm S 8 11 - - - - - - - - 1019.4 0.0
17/01:30pm S 8 11 - - - - - - - - 1019.3 0.0
17/01:00pm S 8 11 - - - - - - - - 1019.4 0.0
17/12:30pm S 9 13 - - - - - - - - 1019.8 0.0
17/12:00pm SSW 8 13 - - - - - - - - 1019.9 0.0
17/11:30am S 10 16 - - - - - - - - 1020.2 0.0
17/11:00am SSW 8 13 - - - - - - - - 1020.3 0.0
17/10:30am SSW 10 15 - - - - - - - - 1020.2 0.0
17/10:00am SSW 9 14 - - - - - - - - 1020.0 0.0
17/09:30am SSW 8 12 - - - - - - - - 1019.8 0.0
17/09:00am SW 6 11 - - - - - - - - 1019.5 0.0
17/08:30am SW 7 11 - - - - - - - - 1019.4 0.0
17/08:00am SW 6 9 - - - - - - - - 1019.2 0.0
17/07:30am SW 4 8 - - - - - - - - 1018.8 0.0
17/07:00am WSW 6 8 - - - - - - - - 1018.1 0.0
17/06:30am SW 5 7 - - - - - - - - 1017.7 0.0
17/06:00am SW 6 9 - - - - - - - - 1017.0 0.0
17/05:30am SW 6 9 - - - - - - - - 1016.7 0.0
17/05:00am SW 6 9 - - - - - - - - 1016.2 0.0

Other formats

Comma delimited format used in spreadsheet applications
http://www.bom.gov.au/fwo/IDN60701/IDN60701.94938.axf

JavaScript Object Notation format (JSON) in row-major order
http://www.bom.gov.au/fwo/IDN60701/IDN60701.94938.json

Data quality

Most of these data are generated automatically and are frequently updated. Quality checks on data are not normally performed. It is possible for incorrect values to appear. Refer to information at About Latest Weather Observations and please check the disclaimer before using these data.